createdAt,value
2023-03-23T15:59:11.603Z,1.98
2023-03-23T16:01:42.008Z,2.47
2023-03-23T16:04:12.460Z,2.38
2023-03-23T16:06:40.679Z,2.92
2023-03-23T16:09:11.059Z,2.15
2023-03-23T16:11:39.073Z,2.38
2023-03-23T16:14:08.148Z,2.55
2023-03-23T16:16:38.204Z,1.77
2023-03-23T16:19:06.725Z,1.80
2023-03-23T16:21:34.676Z,1.70
2023-03-23T16:24:02.348Z,1.73
2023-03-23T16:26:29.961Z,2.13
2023-03-23T16:29:09.937Z,1.90
2023-03-23T16:31:59.708Z,1.90
2023-03-23T16:34:30.271Z,1.95
2023-03-23T16:36:58.228Z,1.90
2023-03-23T16:39:25.790Z,1.50
2023-03-23T16:41:53.371Z,1.45
2023-03-23T16:44:20.948Z,1.45
2023-03-23T16:46:52.166Z,1.73
2023-03-23T16:49:19.728Z,1.95
2023-03-23T16:51:48.062Z,2.05
2023-03-23T16:54:15.785Z,1.98
2023-03-23T16:56:46.594Z,2.50
2023-03-23T16:59:14.237Z,2.10
2023-03-23T17:01:43.087Z,1.70
2023-03-23T17:04:12.076Z,1.67
2023-03-23T17:06:39.908Z,1.80
2023-03-23T17:09:07.760Z,1.20
2023-03-23T17:11:35.692Z,1.90
2023-03-23T17:14:03.300Z,1.60
2023-03-23T17:16:30.947Z,1.75
2023-03-23T17:18:58.503Z,1.70
2023-03-23T17:21:27.388Z,2.50
2023-03-23T17:23:55.126Z,3.25
2023-03-23T17:26:22.683Z,4.97
2023-03-23T17:28:50.325Z,4.05
2023-03-23T17:31:17.988Z,3.88
2023-03-23T17:33:45.497Z,3.50
2023-03-23T17:36:13.082Z,3.15
2023-03-23T17:38:41.992Z,2.80
2023-03-23T17:41:11.330Z,2.65
2023-03-23T17:43:40.508Z,2.55
2023-03-23T17:46:08.996Z,2.03
2023-03-23T17:48:37.011Z,2.25
2023-03-23T17:51:05.223Z,2.03
2023-03-23T17:53:35.547Z,2.45
2023-03-23T17:56:05.963Z,2.50
2023-03-23T17:58:35.269Z,2.17
2023-03-23T18:01:03.264Z,1.65
2023-03-23T18:03:31.147Z,1.90
2023-03-23T18:06:00.434Z,1.70
2023-03-23T18:08:29.038Z,1.90
2023-03-23T18:10:57.668Z,2.20
2023-03-23T18:13:27.958Z,2.53
2023-03-23T18:15:56.542Z,2.22
2023-03-23T18:18:24.829Z,2.00
2023-03-23T18:20:55.680Z,1.90
2023-03-23T18:23:23.357Z,2.45
2023-03-23T18:25:51.193Z,2.80
2023-03-23T18:28:18.843Z,2.90
2023-03-23T18:30:49.314Z,2.40
2023-03-23T18:33:18.266Z,3.20
2023-03-23T18:35:47.080Z,2.58
2023-03-23T18:38:15.666Z,3.03
2023-03-23T18:40:44.840Z,2.45
2023-03-23T18:43:12.470Z,2.08
2023-03-23T18:45:40.228Z,2.95
2023-03-23T18:48:09.700Z,2.97
2023-03-23T18:50:37.262Z,2.50
2023-03-23T18:53:04.846Z,2.60
2023-03-23T18:55:32.419Z,3.40
2023-03-23T18:58:00.220Z,2.90
2023-03-23T19:00:29.497Z,2.40
2023-03-23T19:02:57.192Z,2.28
2023-03-23T19:05:27.505Z,3.22
2023-03-23T19:07:55.271Z,2.50
2023-03-23T19:10:24.106Z,2.15
2023-03-23T19:12:52.025Z,2.05
2023-03-23T19:15:19.587Z,2.47
2023-03-23T19:17:47.551Z,2.00
2023-03-23T19:20:30.781Z,2.17
2023-03-23T19:23:04.328Z,1.67
2023-03-23T19:25:32.614Z,1.60
2023-03-23T19:28:49.938Z,2.92
2023-03-23T19:30:49.827Z,2.17
2023-03-23T19:33:18.031Z,2.20
2023-03-23T19:35:50.705Z,2.55
2023-03-23T19:38:23.676Z,2.13
2023-03-23T19:43:22.734Z,2.38
2023-03-23T19:45:51.117Z,2.10
2023-03-23T19:48:19.386Z,2.85
2023-03-23T19:50:50.859Z,1.80
2023-03-23T19:53:19.318Z,2.45
2023-03-23T19:55:48.956Z,2.47
2023-03-23T19:58:16.785Z,2.15
2023-03-23T20:00:44.862Z,2.17
2023-03-23T20:03:13.808Z,2.40
2023-03-23T20:05:41.637Z,2.20
2023-03-23T20:08:10.005Z,2.50
2023-03-23T20:10:37.942Z,2.45
2023-03-23T20:13:08.001Z,2.33
2023-03-23T20:15:35.701Z,2.33
2023-03-23T20:18:03.434Z,2.42
2023-03-23T20:20:31.622Z,2.15
2023-03-23T20:22:59.339Z,1.85
2023-03-23T20:25:26.950Z,2.03
2023-03-23T20:27:55.141Z,2.40
2023-03-23T20:30:24.083Z,2.67
2023-03-23T20:32:53.528Z,2.85
2023-03-23T20:35:22.404Z,2.40
2023-03-23T20:37:50.595Z,2.78
2023-03-23T20:40:18.587Z,3.05
2023-03-23T20:42:46.148Z,2.85
2023-03-23T20:45:14.133Z,3.25
2023-03-23T20:47:43.323Z,3.42
2023-03-23T20:50:12.327Z,4.10
2023-03-23T20:52:41.623Z,4.05
2023-03-23T20:55:09.520Z,4.18
2023-03-23T20:57:38.227Z,3.65
2023-03-23T21:00:07.489Z,4.20
2023-03-23T21:02:35.198Z,4.47
2023-03-23T21:05:05.074Z,4.38
2023-03-23T21:07:32.701Z,5.13
2023-03-23T21:10:00.648Z,4.80
2023-03-23T21:12:28.328Z,5.60
2023-03-23T21:14:56.275Z,5.38
2023-03-23T21:17:23.888Z,5.38
2023-03-23T21:19:51.869Z,5.95
2023-03-23T21:22:21.382Z,5.93
2023-03-23T21:24:50.318Z,6.05
2023-03-23T21:27:18.856Z,6.15
2023-03-23T21:29:46.652Z,6.22
2023-03-23T21:32:14.155Z,7.63
2023-03-23T21:34:43.210Z,6.63
2023-03-23T21:37:12.163Z,6.82
2023-03-23T21:39:41.641Z,6.88
2023-03-23T21:42:09.485Z,8.18
2023-03-23T21:44:38.954Z,7.22
2023-03-23T21:47:06.586Z,6.93
2023-03-23T21:49:34.213Z,7.32
2023-03-23T21:52:02.080Z,7.50
2023-03-23T21:54:30.346Z,7.22
2023-03-23T21:56:59.968Z,7.15
2023-03-23T21:59:27.924Z,7.18
2023-03-23T22:01:58.066Z,7.05
2023-03-23T22:04:27.758Z,6.75
2023-03-23T22:06:55.637Z,6.75
2023-03-23T22:09:23.334Z,6.15
2023-03-23T22:11:50.924Z,6.72
2023-03-23T22:14:19.802Z,7.22
2023-03-23T22:16:47.422Z,6.97
2023-03-23T22:19:15.068Z,6.95
2023-03-23T22:21:42.834Z,6.63
2023-03-23T22:24:11.274Z,7.55
2023-03-23T22:26:39.907Z,7.15
2023-03-23T22:29:10.282Z,7.00
2023-03-23T22:31:40.461Z,7.68
2023-03-23T22:34:08.120Z,7.03
2023-03-23T22:36:35.658Z,7.25
2023-03-23T22:39:04.102Z,7.50
2023-03-23T22:41:33.458Z,7.30
2023-03-23T22:44:01.298Z,7.63
2023-03-23T22:46:28.823Z,8.10
2023-03-23T22:48:57.868Z,7.85
2023-03-23T22:51:25.659Z,8.15
2023-03-23T22:53:53.484Z,6.80
2023-03-23T22:56:21.402Z,7.65
2023-03-23T22:58:49.040Z,6.65
2023-03-23T23:01:18.829Z,7.10
2023-03-23T23:03:47.308Z,6.43
2023-03-23T23:06:18.340Z,6.07
2023-03-23T23:08:46.702Z,5.63
2023-03-23T23:11:16.344Z,5.50
2023-03-23T23:13:44.785Z,6.13
2023-03-23T23:16:14.029Z,5.20
2023-03-23T23:18:41.774Z,5.85
2023-03-23T23:21:11.294Z,5.13
2023-03-23T23:23:40.473Z,5.85
2023-03-23T23:26:08.697Z,5.35
2023-03-23T23:28:37.075Z,4.88
2023-03-23T23:31:06.169Z,4.95
2023-03-23T23:33:33.905Z,5.13
2023-03-23T23:36:01.564Z,5.07
2023-03-23T23:38:29.144Z,4.93
2023-03-23T23:40:58.390Z,4.38
2023-03-23T23:43:25.981Z,4.78
2023-03-23T23:45:53.747Z,4.45
2023-03-23T23:48:21.551Z,3.88
2023-03-23T23:50:51.010Z,4.18
2023-03-23T23:53:22.684Z,3.92
2023-03-23T23:55:50.300Z,4.47
2023-03-23T23:58:19.355Z,3.75
